Time;durP1;ratioP1;P1;durP2;ratioP2;P2;SDS_P1;SDS_P2;PMS_P1;PMS_P2;Temp;Humidity;BMP_temperature;BMP_pressure;BME280_temperature;BME280_humidity;BME280_pressure;Samples;Min_cycle;Max_cycle;Signal;HPM_P1;HPM_P2
2022/07/06 00:02:13;;;;;;;13.40;9.50;;;;;;;20.74;62.62;100548.44;1709520;83;21291;-55
2022/07/06 00:05:21;;;;;;;12.65;10.58;;;;;;;20.70;62.57;100550.02;1722819;83;21180;-55
2022/07/06 00:08:29;;;;;;;13.28;10.05;;;;;;;20.65;62.58;100547.09;1710192;83;21286;-54
2022/07/06 00:11:35;;;;;;;14.93;10.58;;;;;;;20.63;62.76;100548.72;1710329;83;21192;-55
2022/07/06 00:14:42;;;;;;;12.37;10.00;;;;;;;20.58;62.79;100554.14;1713614;83;21220;-55
2022/07/06 00:17:49;;;;;;;15.35;10.65;;;;;;;20.53;62.81;100554.56;1710111;84;21224;-54
2022/07/06 00:20:56;;;;;;;12.63;10.15;;;;;;;20.48;62.96;100550.24;1710256;83;21193;-56
2022/07/06 00:24:02;;;;;;;13.03;11.03;;;;;;;20.48;63.17;100549.70;1722958;83;21219;-54
2022/07/06 00:27:11;;;;;;;14.45;10.32;;;;;;;20.48;63.29;100545.53;1709995;83;21219;-55
2022/07/06 00:30:18;;;;;;;13.32;10.35;;;;;;;20.50;63.38;100543.91;1710046;83;21271;-55
2022/07/06 00:33:23;;;;;;;12.88;11.05;;;;;;;20.43;63.30;100548.17;1709426;83;21236;-55
2022/07/06 00:36:29;;;;;;;14.95;11.43;;;;;;;20.41;63.44;100549.48;1709484;84;21224;-54
2022/07/06 00:39:36;;;;;;;12.28;10.98;;;;;;;20.41;63.57;100545.30;1709373;84;21227;-55
2022/07/06 00:42:52;;;;;;;13.80;12.13;;;;;;;20.39;63.65;100541.94;1709340;84;21216;-54
2022/07/06 00:45:59;;;;;;;20.45;12.07;;;;;;;20.35;63.62;100537.91;1708954;84;21235;-55
2022/07/06 00:49:05;;;;;;;13.72;10.95;;;;;;;20.28;63.63;100535.78;1709375;84;21196;-54
2022/07/06 00:52:11;;;;;;;15.78;11.93;;;;;;;20.22;63.71;100542.25;1709274;84;21239;-54
2022/07/06 00:55:21;;;;;;;14.55;11.83;;;;;;;20.20;63.87;100539.71;1709450;83;21224;-55
2022/07/06 00:58:26;;;;;;;16.07;12.47;;;;;;;20.21;63.98;100546.98;1709200;84;21216;-54
2022/07/06 01:01:32;;;;;;;14.18;11.43;;;;;;;20.19;63.99;100551.06;1690933;84;21717;-54
2022/07/06 01:04:38;;;;;;;16.37;11.60;;;;;;;20.15;63.96;100547.07;1711999;84;21402;-53
2022/07/06 01:07:46;;;;;;;17.55;11.48;;;;;;;20.14;64.12;100543.97;1709441;83;21259;-55
2022/07/06 01:10:52;;;;;;;14.47;10.75;;;;;;;20.10;64.14;100550.52;1709399;84;21188;-53
2022/07/06 01:13:59;;;;;;;13.00;11.22;;;;;;;20.07;64.16;100551.00;1709064;84;21413;-54
2022/07/06 01:17:06;;;;;;;13.10;10.98;;;;;;;20.04;64.27;100547.83;1709364;84;21212;-54
2022/07/06 01:20:27;;;;;;;14.20;12.23;;;;;;;20.03;64.39;100552.53;1709360;84;21296;-53
2022/07/06 01:23:33;;;;;;;13.48;11.20;;;;;;;20.03;64.46;100551.14;1707286;83;21232;-54
2022/07/06 01:26:40;;;;;;;13.68;10.88;;;;;;;20.00;64.51;100550.75;1712026;84;21268;-54
2022/07/06 01:29:46;;;;;;;14.60;10.90;;;;;;;19.99;64.53;100553.23;1690852;84;21208;-55
2022/07/06 01:32:53;;;;;;;13.78;11.05;;;;;;;19.96;64.61;100554.56;1710272;83;21308;-55
2022/07/06 01:35:58;;;;;;;12.40;11.10;;;;;;;19.93;64.71;100557.77;1711484;84;21243;-56
2022/07/06 01:39:05;;;;;;;14.75;10.25;;;;;;;19.89;64.66;100555.16;1711568;84;21342;-55
2022/07/06 01:42:13;;;;;;;18.65;11.12;;;;;;;19.85;64.84;100553.91;1711742;83;21264;-56
2022/07/06 01:45:20;;;;;;;13.80;10.63;;;;;;;19.84;64.93;100549.98;1711640;84;21228;-55
2022/07/06 01:48:26;;;;;;;14.53;10.70;;;;;;;19.85;65.08;100549.75;1711528;84;21223;-55
2022/07/06 01:51:32;;;;;;;12.45;10.48;;;;;;;19.86;65.07;100556.16;1707184;84;21220;-56
2022/07/06 01:54:38;;;;;;;17.50;11.57;;;;;;;19.85;65.05;100546.97;1711757;83;21211;-55
2022/07/06 01:57:44;;;;;;;12.60;10.32;;;;;;;19.84;65.09;100555.01;1711529;84;21196;-56
2022/07/06 02:00:52;;;;;;;13.40;10.95;;;;;;;19.85;65.20;100548.92;1711620;83;21227;-53
2022/07/06 02:03:58;;;;;;;14.95;10.65;;;;;;;19.86;65.20;100546.44;1711308;83;21240;-54
2022/07/06 02:07:07;;;;;;;13.50;10.30;;;;;;;19.82;65.20;100543.83;1711627;84;21276;-55
2022/07/06 02:10:14;;;;;;;12.40;9.35;;;;;;;19.83;65.29;100549.16;1711576;84;21235;-55
2022/07/06 02:13:21;;;;;;;12.53;11.20;;;;;;;19.82;65.33;100554.94;1711683;83;21211;-54
2022/07/06 02:16:28;;;;;;;12.93;10.70;;;;;;;19.76;65.31;100551.67;1711832;83;21258;-54
2022/07/06 02:19:34;;;;;;;14.20;10.60;;;;;;;19.77;65.43;100560.34;1711766;83;21729;-55
2022/07/06 02:22:42;;;;;;;18.17;10.93;;;;;;;19.75;65.40;100561.10;1711588;84;21180;-54
2022/07/06 02:25:50;;;;;;;17.05;10.72;;;;;;;19.69;65.34;100562.89;1712060;83;21330;-55
2022/07/06 02:28:57;;;;;;;14.38;11.35;;;;;;;19.68;65.38;100558.39;1711436;84;21216;-54
2022/07/06 02:32:03;;;;;;;15.78;11.20;;;;;;;19.71;65.48;100562.09;1711499;84;21192;-54
2022/07/06 02:35:10;;;;;;;16.65;12.03;;;;;;;19.74;65.58;100559.41;1706630;82;21228;-55
2022/07/06 02:38:18;;;;;;;19.05;13.28;;;;;;;19.80;65.76;100561.27;1707187;84;21340;-55
2022/07/06 02:41:25;;;;;;;20.72;16.37;;;;;;;19.87;65.83;100568.43;1707076;84;21260;-55
2022/07/06 02:44:31;;;;;;;22.75;15.78;;;;;;;19.92;65.87;100564.95;1705054;84;21792;-55
2022/07/06 02:47:42;;;;;;;26.82;21.52;;;;;;;19.97;65.85;100576.23;1707290;83;21177;-54
2022/07/06 02:50:45;;;;;;;22.93;19.05;;;;;;;20.02;65.79;100568.05;1706974;84;21216;-55
2022/07/06 02:53:52;;;;;;;21.90;16.45;;;;;;;20.06;65.87;100577.08;1706985;84;21828;-54
2022/07/06 02:56:58;;;;;;;21.25;14.33;;;;;;;20.11;65.98;100566.11;1706948;84;21212;-55
2022/07/06 03:00:05;;;;;;;19.23;15.05;;;;;;;20.15;66.00;100566.53;1707119;84;21228;-55
2022/07/06 03:03:12;;;;;;;16.87;15.05;;;;;;;20.23;66.08;100569.00;1707014;84;21216;-55
2022/07/06 03:06:18;;;;;;;19.98;16.52;;;;;;;20.30;66.16;100564.17;1706983;84;21212;-54
2022/07/06 03:09:26;;;;;;;21.30;16.48;;;;;;;20.38;66.21;100565.24;1707020;84;21255;-54
2022/07/06 03:12:34;;;;;;;23.22;16.95;;;;;;;20.45;66.14;100559.06;1707231;84;21196;-55
2022/07/06 03:15:40;;;;;;;17.10;15.18;;;;;;;20.53;66.17;100562.91;1703779;84;21343;-54
2022/07/06 03:18:47;;;;;;;24.57;16.07;;;;;;;20.63;66.26;100565.94;1707071;84;21216;-54
2022/07/06 03:21:54;;;;;;;18.80;14.95;;;;;;;20.73;66.25;100564.84;1707157;84;21200;-55
2022/07/06 03:25:01;;;;;;;20.35;15.23;;;;;;;20.82;66.29;100564.80;1707006;84;21840;-54
2022/07/06 03:28:09;;;;;;;20.43;15.83;;;;;;;20.91;66.27;100562.00;1707006;84;21212;-54
2022/07/06 03:31:15;;;;;;;19.10;15.85;;;;;;;21.03;66.38;100569.85;1707166;84;21248;-55
2022/07/06 03:34:23;;;;;;;18.15;15.05;;;;;;;21.13;66.38;100561.77;1706254;83;21323;-54
2022/07/06 03:37:28;;;;;;;24.30;15.93;;;;;;;21.24;66.47;100560.93;1707097;84;21244;-54
2022/07/06 03:40:33;;;;;;;18.07;14.63;;;;;;;21.36;66.50;100557.59;1707053;84;21230;-53
2022/07/06 03:43:39;;;;;;;18.27;15.40;;;;;;;21.46;66.48;100555.06;1704354;84;21223;-53
2022/07/06 03:46:46;;;;;;;18.15;14.38;;;;;;;21.55;66.41;100561.95;1707291;84;21188;-54
2022/07/06 03:49:53;;;;;;;18.57;14.40;;;;;;;21.63;66.45;100558.80;1706964;84;21201;-54
2022/07/06 03:53:01;;;;;;;16.02;13.62;;;;;;;21.73;66.47;100559.58;1707317;84;21756;-53
2022/07/06 03:59:37;;;;;;;20.60;12.98;;;;;;;21.93;66.56;100555.87;1706970;84;21729;-56
2022/07/06 04:02:45;;;;;;;25.00;14.10;;;;;;;22.03;66.54;100560.30;1707094;84;21192;-54
2022/07/06 04:05:53;;;;;;;16.10;12.58;;;;;;;22.10;66.62;100557.66;1707154;84;21741;-54
2022/07/06 04:09:01;;;;;;;22.87;12.90;;;;;;;22.21;66.67;100559.56;1707177;84;21244;-49
2022/07/06 04:12:12;;;;;;;22.17;12.93;;;;;;;22.33;66.75;100551.70;1707220;84;21228;-53
2022/07/06 04:15:19;;;;;;;26.12;16.93;;;;;;;22.43;66.76;100549.13;1689529;84;21208;-56
2022/07/06 04:18:27;;;;;;;19.77;16.50;;;;;;;22.54;66.80;100549.66;1707611;83;21276;-55
2022/07/06 04:21:29;;;;;;;26.30;14.68;;;;;;;22.67;66.88;100548.81;1707143;84;21196;-54
2022/07/06 04:24:22;;;;;;;16.67;12.58;;;;;;;22.79;66.85;100544.55;1707231;84;21243;-54
2022/07/06 04:27:12;;;;;;;20.55;12.70;;;;;;;22.89;66.83;100548.39;1707241;84;21235;-54
2022/07/06 04:30:06;;;;;;;32.67;22.65;;;;;;;22.99;66.82;100547.15;1707026;84;21225;-54
2022/07/06 04:32:55;;;;;;;28.45;21.00;;;;;;;23.10;66.83;100538.42;1707195;83;21267;-54
2022/07/06 04:36:05;;;;;;;38.08;33.65;;;;;;;23.21;66.81;100542.50;1685005;84;21247;-50
2022/07/06 04:39:12;;;;;;;23.92;18.12;;;;;;;23.34;66.83;100540.80;1711498;84;21299;-56
2022/07/06 04:42:18;;;;;;;23.00;18.75;;;;;;;23.47;66.81;100536.26;1734501;80;21322;-52
2022/07/06 04:45:26;;;;;;;25.88;16.45;;;;;;;23.61;66.79;100540.92;1767970;80;21367;-56
2022/07/06 04:48:36;;;;;;;72.08;57.35;;;;;;;23.74;66.77;100539.17;1764790;80;21188;-52
2022/07/06 04:51:38;;;;;;;22.25;17.82;;;;;;;23.86;66.73;100540.45;1717746;80;21414;-54
2022/07/06 04:54:33;;;;;;;16.52;14.30;;;;;;;23.99;66.67;100538.14;1707436;84;21253;-52
2022/07/06 04:57:39;;;;;;;17.35;11.83;;;;;;;24.09;66.63;100538.29;1732172;82;21243;-52
2022/07/06 05:00:48;;;;;;;14.65;11.00;;;;;;;24.18;66.55;100535.31;1743214;82;21251;-53
2022/07/06 05:03:54;;;;;;;16.00;11.57;;;;;;;24.29;66.45;100536.30;1735046;80;21195;-54
2022/07/06 05:07:01;;;;;;;16.07;11.53;;;;;;;24.39;66.37;100540.06;1728200;82;21328;-52
2022/07/06 05:10:07;;;;;;;14.65;10.60;;;;;;;24.50;66.29;100536.27;1734319;80;21223;-52
2022/07/06 05:13:17;;;;;;;14.85;11.22;;;;;;;24.59;66.22;100530.48;1728182;82;21235;-51
2022/07/06 05:16:23;;;;;;;16.40;11.85;;;;;;;24.71;66.12;100532.62;1741618;80;21474;-52
2022/07/06 05:19:29;;;;;;;26.23;13.93;;;;;;;24.82;66.06;100531.61;1747319;82;21204;-52
2022/07/06 05:22:40;;;;;;;12.18;10.60;;;;;;;24.94;66.04;100530.05;1747071;82;21693;-52
2022/07/06 05:25:48;;;;;;;13.78;10.98;;;;;;;25.05;65.95;100524.24;1746249;82;21255;-52
2022/07/06 05:28:54;;;;;;;14.45;11.15;;;;;;;25.16;65.88;100520.99;1754108;80;21215;-52
2022/07/06 05:32:03;;;;;;;17.67;10.50;;;;;;;25.30;65.84;100531.17;1720049;83;21271;-52
2022/07/06 05:35:10;;;;;;;13.45;11.15;;;;;;;25.42;65.86;100530.48;1717572;83;21236;-50
2022/07/06 05:38:18;;;;;;;11.57;9.90;;;;;;;25.54;65.88;100537.58;1728564;80;21238;-52
2022/07/06 05:41:27;;;;;;;16.23;11.48;;;;;;;25.66;65.87;100535.95;1718335;80;21556;-50
2022/07/06 05:44:34;;;;;;;16.93;10.43;;;;;;;25.76;65.82;100527.61;1747468;82;21580;-52
2022/07/06 05:51:03;;;;;;;16.60;11.33;;;;;;;25.98;65.76;100522.67;1745361;80;21354;-52
2022/07/06 05:54:09;;;;;;;13.22;10.50;;;;;;;26.06;65.68;100518.83;1751740;80;21231;-52
2022/07/06 05:57:15;;;;;;;13.18;10.23;;;;;;;26.15;65.63;100512.97;1744236;80;21186;-52
2022/07/06 06:00:21;;;;;;;18.27;9.93;;;;;;;26.26;65.57;100513.84;1747951;81;21804;-53
2022/07/06 06:03:29;;;;;;;11.68;10.18;;;;;;;26.36;65.52;100517.55;1723565;82;21267;-52
2022/07/06 06:06:42;;;;;;;;;;;;;;;26.47;65.37;100514.19;1713404;82;21566;-52
2022/07/06 06:09:49;;;;;;;11.50;9.78;;;;;;;26.57;65.23;100511.42;1731253;80;20628;-53
2022/07/06 06:13:01;;;;;;;14.07;10.55;;;;;;;26.65;65.09;100513.72;1726729;83;21223;-52
2022/07/06 06:16:08;;;;;;;13.30;9.53;;;;;;;26.73;64.95;100507.55;1726450;80;21807;-52
2022/07/06 06:19:15;;;;;;;11.05;9.63;;;;;;;26.84;64.87;100505.59;1739531;82;21303;-54
2022/07/06 06:22:22;;;;;;;12.15;9.80;;;;;;;26.92;64.81;100509.25;1746522;80;21192;-57
2022/07/06 06:25:37;;;;;;;11.88;10.00;;;;;;;27.01;64.67;100512.63;1736889;80;21611;-56
2022/07/06 06:28:44;;;;;;;12.63;9.30;;;;;;;27.10;64.54;100517.97;1741828;82;21196;-55
2022/07/06 06:31:52;;;;;;;12.65;9.08;;;;;;;27.22;64.48;100517.14;1747015;82;21294;-56
2022/07/06 06:35:06;;;;;;;14.23;10.23;;;;;;;27.30;64.34;100506.77;1746765;82;21227;-55
2022/07/06 06:38:13;;;;;;;10.58;8.20;;;;;;;27.40;64.17;100510.13;1728692;81;21305;-55
2022/07/06 06:41:21;;;;;;;9.45;8.33;;;;;;;27.48;63.94;100506.16;1720999;81;21188;-56
2022/07/06 06:44:37;;;;;;;11.20;9.18;;;;;;;27.57;63.75;100499.41;1738340;82;21613;-58
2022/07/06 06:48:11;;;;;;;11.65;8.23;;;;;;;27.65;63.61;100503.88;1727647;81;21771;-56
2022/07/06 06:51:33;;;;;;;8.60;7.72;;;;;;;27.75;63.49;100496.82;1705240;82;21414;-57
2022/07/06 06:54:42;;;;;;;12.95;8.10;;;;;;;27.86;63.34;100499.88;1672677;84;21258;-58
2022/07/06 06:57:52;;;;;;;10.10;6.83;;;;;;;27.95;63.14;100502.14;1699861;84;21178;-58
2022/07/06 07:00:59;;;;;;;11.60;7.33;;;;;;;28.04;62.93;100496.19;1713262;82;21270;-56
2022/07/06 07:04:07;;;;;;;7.53;6.62;;;;;;;28.10;62.74;100495.88;1734232;82;21578;-56
2022/07/06 07:07:14;;;;;;;10.85;7.35;;;;;;;28.19;62.58;100491.91;1729104;81;21181;-56
2022/07/06 07:10:21;;;;;;;10.70;7.53;;;;;;;28.28;62.47;100492.98;1716943;82;21224;-57
2022/07/06 07:13:27;;;;;;;10.20;7.10;;;;;;;28.35;62.30;100495.75;1713107;81;21203;-57
2022/07/06 07:16:33;;;;;;;10.30;6.97;;;;;;;28.41;62.08;100488.13;1722687;82;21193;-58
2022/07/06 07:19:43;;;;;;;12.10;8.30;;;;;;;28.50;61.96;100490.64;1735618;81;21175;-56
2022/07/06 07:22:50;;;;;;;7.72;6.87;;;;;;;28.60;61.82;100492.84;1708519;83;21244;-58
2022/07/06 07:25:56;;;;;;;9.15;7.47;;;;;;;28.68;61.71;100488.00;1707459;83;21304;-56
2022/07/06 07:29:04;;;;;;;9.98;7.35;;;;;;;28.76;61.53;100483.72;1708600;83;21228;-57
2022/07/06 07:32:17;;;;;;;8.98;7.50;;;;;;;28.82;61.35;100481.13;1732496;82;21239;-57
2022/07/06 07:35:25;;;;;;;8.88;7.53;;;;;;;28.90;61.27;100488.95;1708497;83;21207;-58
2022/07/06 07:38:31;;;;;;;8.00;7.20;;;;;;;28.96;61.10;100487.78;1717426;81;21623;-58
2022/07/06 07:41:45;;;;;;;9.08;7.50;;;;;;;29.02;60.92;100483.77;1713479;82;21203;-57
2022/07/06 07:44:59;;;;;;;10.85;7.60;;;;;;;29.06;60.70;100486.30;1721622;83;21775;-57
2022/07/06 07:48:11;;;;;;;10.80;7.28;;;;;;;29.13;60.56;100479.77;1721747;82;21215;-58
2022/07/06 07:51:27;;;;;;;9.03;7.25;;;;;;;29.17;60.44;100483.69;1718782;83;21262;-56
2022/07/06 07:54:28;;;;;;;12.98;6.92;;;;;;;29.22;60.26;100480.23;1720821;83;21255;-55
2022/07/06 07:57:38;;;;;;;7.80;6.87;;;;;;;29.26;59.99;100479.68;1721213;83;21219;-56
2022/07/06 08:00:43;;;;;;;8.63;6.60;;;;;;;29.31;59.93;100478.19;1724135;81;21341;-55
2022/07/06 08:03:51;;;;;;;9.43;7.53;;;;;;;29.35;59.73;100476.48;1716311;82;21212;-56
2022/07/06 08:06:59;;;;;;;8.18;6.97;;;;;;;29.42;59.59;100484.86;1717502;82;21207;-55
2022/07/06 08:10:11;;;;;;;10.80;7.35;;;;;;;29.50;59.48;100486.18;1674972;85;21788;-58
2022/07/06 08:13:18;;;;;;;9.58;6.90;;;;;;;29.57;59.34;100475.41;1660766;85;21264;-58
2022/07/06 08:16:25;;;;;;;7.42;6.65;;;;;;;29.63;59.16;100475.61;1657367;86;21658;-55
2022/07/06 08:19:33;;;;;;;7.83;6.83;;;;;;;29.71;59.02;100471.61;1653487;86;21228;-59
2022/07/06 08:22:41;;;;;;;8.05;6.20;;;;;;;29.79;58.86;100482.24;1712644;81;21521;-57
2022/07/06 08:25:50;;;;;;;7.22;6.22;;;;;;;29.89;58.76;100470.81;1702561;83;21719;-60
2022/07/06 08:28:59;;;;;;;12.53;6.75;;;;;;;29.99;58.60;100474.93;1723279;83;21780;-58
2022/07/06 08:32:06;;;;;;;10.90;6.65;;;;;;;30.08;58.32;100481.58;1719285;83;21640;-57
2022/07/06 08:35:15;;;;;;;9.50;6.67;;;;;;;30.20;57.79;100477.77;1718551;83;21279;-54
2022/07/06 08:38:20;;;;;;;7.65;6.25;;;;;;;30.20;57.79;100477.77;1719046;82;21217;-59
2022/07/06 08:41:31;;;;;;;7.55;5.87;;;;;;;30.27;57.55;100476.84;1713254;81;21728;-59
2022/07/06 08:44:39;;;;;;;7.40;5.85;;;;;;;30.31;56.95;100473.70;1711726;83;21244;-57
2022/07/06 08:47:46;;;;;;;12.13;6.35;;;;;;;30.31;56.95;100473.70;1669847;84;21236;-56
2022/07/06 08:50:56;;;;;;;8.68;6.75;;;;;;;30.37;56.73;100473.89;1658260;85;21307;-59
2022/07/06 08:54:02;;;;;;;13.72;6.80;;;;;;;30.52;56.26;100475.06;1721530;82;21211;-59
2022/07/06 08:57:12;;;;;;;7.47;6.70;;;;;;;30.52;56.26;100475.06;1711515;83;21731;-57
2022/07/06 09:00:19;;;;;;;8.60;7.12;;;;;;;30.62;56.36;100463.62;1693922;83;21215;-52
2022/07/06 09:03:25;;;;;;;7.67;6.80;;;;;;;30.65;56.11;100463.00;1711352;82;21259;-55
2022/07/06 09:06:33;;;;;;;8.15;6.97;;;;;;;30.74;55.77;100467.97;1710089;83;21204;-54
2022/07/06 09:09:40;;;;;;;7.75;6.95;;;;;;;30.80;55.71;100465.35;1696451;82;21239;-55
2022/07/06 09:12:46;;;;;;;9.38;6.50;;;;;;;30.89;55.44;100464.34;1683447;85;21617;-55
2022/07/06 09:15:54;;;;;;;9.73;5.90;;;;;;;31.00;55.32;100463.03;1676953;85;21223;-55
2022/07/06 09:19:05;;;;;;;6.55;5.60;;;;;;;31.08;54.97;100461.52;1674835;84;21243;-55
2022/07/06 09:22:09;;;;;;;6.30;5.42;;;;;;;31.15;54.61;100459.11;1674999;85;21227;-55
2022/07/06 09:25:21;;;;;;;9.63;5.60;;;;;;;31.25;54.34;100451.86;1675606;85;21266;-56
2022/07/06 09:28:26;;;;;;;7.53;5.10;;;;;;;31.39;54.33;100452.77;1674973;85;21328;-55
2022/07/06 09:31:34;;;;;;;8.15;5.35;;;;;;;31.54;53.99;100449.66;1676533;85;21203;-55
2022/07/06 09:34:50;;;;;;;6.28;4.58;;;;;;;31.68;53.58;100449.09;1731741;82;21286;-54
2022/07/06 09:38:08;;;;;;;7.95;5.08;;;;;;;31.76;53.23;100442.70;1733639;82;21195;-54
2022/07/06 09:41:15;;;;;;;9.63;5.50;;;;;;;31.86;52.83;100439.11;1687172;83;21269;-53
2022/07/06 09:44:24;;;;;;;7.55;5.62;;;;;;;31.98;52.56;100446.48;1708956;83;21283;-55
2022/07/06 09:47:38;;;;;;;6.67;5.62;;;;;;;32.09;52.30;100442.88;1710288;83;21224;-56
2022/07/06 09:50:52;;;;;;;7.55;5.65;;;;;;;32.17;51.94;100436.47;1695348;83;21253;-55
2022/07/06 09:53:59;;;;;;;9.85;6.08;;;;;;;32.19;51.57;100434.13;1748223;81;21184;-55
2022/07/06 09:57:09;;;;;;;7.25;5.78;;;;;;;32.19;51.50;100429.88;1756989;81;21749;-57
2022/07/06 10:00:17;;;;;;;8.98;5.60;;;;;;;32.30;51.41;100427.08;1740509;81;21670;-56
2022/07/06 10:03:25;;;;;;;7.37;5.05;;;;;;;32.40;51.19;100424.05;1727646;82;21374;-55
2022/07/06 10:06:33;;;;;;;8.03;4.92;;;;;;;32.41;50.84;100425.75;1690317;84;21737;-55
2022/07/06 10:09:42;;;;;;;7.30;5.65;;;;;;;32.49;50.84;100427.80;1732678;82;21264;-55
2022/07/06 10:12:52;;;;;;;5.50;4.87;;;;;;;32.61;50.53;100422.42;1706279;83;21301;-54
2022/07/06 10:16:00;;;;;;;7.25;5.20;;;;;;;32.74;50.25;100417.28;1677048;85;21243;-53
2022/07/06 10:19:06;;;;;;;8.90;4.90;;;;;;;32.84;49.94;100422.68;1701586;84;22225;-56
2022/07/06 10:22:12;;;;;;;9.00;5.33;;;;;;;32.98;49.72;100418.41;1702732;84;21716;-54
2022/07/06 10:25:19;;;;;;;9.88;5.08;;;;;;;33.09;49.46;100420.63;1702059;84;21744;-55
2022/07/06 10:28:26;;;;;;;7.55;5.25;;;;;;;33.22;49.17;100420.33;1701622;84;21977;-55
2022/07/06 10:31:32;;;;;;;6.42;4.87;;;;;;;33.30;48.76;100420.36;1696313;82;21231;-56
2022/07/06 10:34:39;;;;;;;6.83;5.10;;;;;;;33.34;48.38;100419.13;1735215;81;21752;-56
2022/07/06 10:37:48;;;;;;;7.15;5.20;;;;;;;33.42;48.24;100418.38;1732822;81;21189;-55
2022/07/06 10:41:04;;;;;;;9.08;5.05;;;;;;;33.59;48.07;100409.09;1756135;81;21204;-56
2022/07/06 10:44:29;;;;;;;6.85;4.80;;;;;;;33.75;47.93;100415.44;1761868;81;21172;-53
2022/07/06 10:47:38;;;;;;;7.10;4.92;;;;;;;33.95;47.63;100405.52;1750810;81;21171;-52
2022/07/06 10:51:04;;;;;;;4.92;4.20;;;;;;;34.16;47.29;100407.97;1736932;82;21174;-54
2022/07/06 10:54:15;;;;;;;7.67;4.47;;;;;;;34.36;46.87;100405.93;1671967;84;22119;-52
2022/07/06 10:57:22;;;;;;;4.35;3.77;;;;;;;34.47;46.27;100405.89;1668009;85;21289;-53
2022/07/06 11:00:30;;;;;;;5.78;4.58;;;;;;;34.52;45.88;100388.67;1680324;85;21248;-54
2022/07/06 11:03:45;;;;;;;5.50;4.65;;;;;;;34.54;45.50;100389.14;1683552;83;21724;-53
2022/07/06 11:06:54;;;;;;;9.63;4.62;;;;;;;34.49;45.29;100387.31;1682150;84;21238;-54
2022/07/06 11:10:06;;;;;;;8.95;4.75;;;;;;;34.61;45.21;100383.23;1692665;84;21167;-54
2022/07/06 11:13:11;;;;;;;8.80;4.00;;;;;;;34.79;45.03;100379.79;1707171;84;21199;-53
2022/07/06 11:16:20;;;;;;;7.00;4.20;;;;;;;34.94;44.68;100375.02;1694038;84;21790;-54
2022/07/06 11:19:32;;;;;;;4.33;3.83;;;;;;;35.07;44.36;100368.87;1680114;85;21256;-53
2022/07/06 11:22:41;;;;;;;6.10;3.75;;;;;;;35.12;43.86;100369.55;1686020;83;21265;-53
2022/07/06 11:25:50;;;;;;;5.17;3.72;;;;;;;35.14;43.52;100364.94;1662084;85;21214;-53
2022/07/06 11:28:57;;;;;;;6.60;4.22;;;;;;;35.17;43.27;100365.06;1706048;83;21597;-53
2022/07/06 11:32:14;;;;;;;8.25;4.85;;;;;;;35.22;43.11;100359.20;1714847;82;21562;-52
2022/07/06 11:35:17;;;;;;;6.90;4.30;;;;;;;35.30;42.89;100358.33;1736489;82;21721;-52
2022/07/06 11:38:34;;;;;;;5.00;4.05;;;;;;;35.39;42.63;100356.92;1741095;82;21271;-53
2022/07/06 11:41:40;;;;;;;6.12;4.45;;;;;;;35.41;42.29;100358.84;1707048;84;21763;-53
2022/07/06 11:44:50;;;;;;;8.88;4.70;;;;;;;35.23;41.78;100361.47;1705527;81;21227;-54
2022/07/06 11:47:56;;;;;;;6.67;4.25;;;;;;;34.92;41.51;100351.73;1659071;84;21301;-53
2022/07/06 11:51:07;;;;;;;5.87;4.20;;;;;;;34.85;41.38;100351.98;1701204;84;21300;-52
2022/07/06 11:54:20;;;;;;;5.33;3.85;;;;;;;34.84;41.32;100349.71;1704709;84;21777;-52
2022/07/06 11:57:27;;;;;;;5.50;4.47;;;;;;;34.90;41.25;100351.27;1684006;84;21735;-52
2022/07/06 12:00:38;;;;;;;5.33;4.00;;;;;;;34.92;40.97;100353.16;1688065;84;21242;-53
2022/07/06 12:03:44;;;;;;;8.00;3.95;;;;;;;34.86;40.74;100347.38;1695862;83;21245;-49
2022/07/06 12:06:56;;;;;;;7.40;4.40;;;;;;;34.85;40.52;100345.72;1680093;83;21222;-50
2022/07/06 12:10:05;;;;;;;7.58;4.20;;;;;;;34.87;40.33;100341.92;1655917;83;21237;-50
2022/07/06 12:13:14;;;;;;;6.20;4.28;;;;;;;34.92;40.20;100339.55;1683662;82;21680;-50
2022/07/06 12:16:23;;;;;;;8.65;3.90;;;;;;;34.85;40.08;100338.59;1705561;82;21408;-49
2022/07/06 12:19:32;;;;;;;11.88;5.85;;;;;;;34.87;39.94;100339.69;1698348;83;21241;-49
2022/07/06 12:22:40;;;;;;;6.37;4.40;;;;;;;34.88;39.92;100329.41;1701838;82;21764;-52
2022/07/06 12:25:48;;;;;;;6.17;4.40;;;;;;;34.70;39.64;100337.11;1699135;84;21785;-52
2022/07/06 12:29:13;;;;;;;7.20;3.95;;;;;;;34.48;39.42;100333.61;1702905;84;21216;-52
2022/07/06 12:32:29;;;;;;;5.80;4.20;;;;;;;34.33;39.37;100328.41;1704333;84;21232;-53
2022/07/06 12:35:43;;;;;;;7.17;4.22;;;;;;;34.16;39.27;100324.12;1697209;82;21749;-54
2022/07/06 12:38:57;;;;;;;4.30;3.60;;;;;;;34.23;39.18;100325.31;1850470;76;22764;-53
2022/07/06 12:45:22;;;;;;;4.58;3.92;;;;;;;34.12;38.90;100306.92;1738621;81;21217;-54
2022/07/06 12:48:30;;;;;;;7.25;4.42;;;;;;;34.13;38.86;100307.16;1735925;81;21259;-53
2022/07/06 12:52:00;;;;;;;6.03;4.03;;;;;;;34.17;38.88;100303.88;1764649;80;21237;-55
2022/07/06 12:55:12;;;;;;;4.83;3.72;;;;;;;34.15;38.75;100297.72;1765311;80;21205;-52
2022/07/06 12:58:27;;;;;;;6.10;3.83;;;;;;;34.15;38.60;100293.45;1811634;78;21256;-53
2022/07/06 13:01:35;;;;;;;6.83;3.90;;;;;;;34.09;38.39;100287.70;1806434;79;21371;-55
2022/07/06 13:04:44;;;;;;;4.03;3.62;;;;;;;34.04;38.33;100275.64;1777744;79;21228;-56
2022/07/06 13:07:55;;;;;;;6.65;4.30;;;;;;;34.03;38.29;100279.06;1771322;79;21213;-54
2022/07/06 13:11:04;;;;;;;16.82;5.35;;;;;;;34.06;38.27;100273.31;1759387;80;21792;-54
2022/07/06 13:14:12;;;;;;;6.35;3.83;;;;;;;34.11;38.16;100268.89;1760596;80;21209;-55
2022/07/06 13:17:20;;;;;;;9.70;4.90;;;;;;;34.15;37.96;100264.19;1768956;79;21209;-54
2022/07/06 13:20:32;;;;;;;9.98;7.03;;;;;;;34.16;37.82;100263.00;1761095;81;21174;-54
2022/07/06 13:23:41;;;;;;;14.03;8.35;;;;;;;34.20;37.82;100268.29;1708772;82;21225;-55
2022/07/06 13:26:47;;;;;;;9.43;4.20;;;;;;;34.23;37.72;100261.36;1732608;81;21194;-53
2022/07/06 13:29:55;;;;;;;6.12;4.30;;;;;;;34.25;37.63;100262.44;1802727;79;21259;-54
2022/07/06 13:33:04;;;;;;;4.78;4.08;;;;;;;34.29;37.50;100264.27;1754041;81;21370;-53
2022/07/06 13:36:14;;;;;;;6.95;3.72;;;;;;;34.41;37.35;100257.95;1803208;79;21242;-54
2022/07/06 13:39:20;;;;;;;8.35;3.87;;;;;;;34.70;37.09;100262.30;1761032;80;21208;-53
2022/07/06 13:42:27;;;;;;;6.03;4.12;;;;;;;34.77;36.84;100258.36;1771600;80;21193;-54
2022/07/06 13:45:35;;;;;;;7.22;3.85;;;;;;;34.70;36.75;100250.92;1770686;81;21378;-53
2022/07/06 13:48:46;;;;;;;5.55;3.35;;;;;;;34.50;36.58;100253.91;1770712;80;21271;-53
2022/07/06 13:52:02;;;;;;;8.73;3.80;;;;;;;34.39;36.58;100248.91;1770884;80;21225;-53
2022/07/06 13:55:07;;;;;;;9.23;4.05;;;;;;;34.36;36.54;100246.70;1745348;82;21372;-54
2022/07/06 13:58:14;;;;;;;5.62;3.75;;;;;;;34.31;36.43;100241.19;1712484;82;21193;-53
2022/07/06 14:01:23;;;;;;;8.50;4.10;;;;;;;34.29;36.31;100242.10;1771223;80;21217;-54
2022/07/06 14:04:29;;;;;;;8.63;3.67;;;;;;;34.26;36.23;100237.09;1777003;79;21264;-55
2022/07/06 14:07:36;;;;;;;8.33;4.17;;;;;;;34.31;36.14;100234.92;1765909;80;21174;-56
2022/07/06 14:10:44;;;;;;;5.42;3.85;;;;;;;34.30;36.05;100229.58;1737235;82;21205;-57
2022/07/06 14:13:52;;;;;;;7.15;3.72;;;;;;;34.25;36.06;100230.56;1728823;81;21726;-55
2022/07/06 14:17:00;;;;;;;6.78;3.95;;;;;;;34.21;36.12;100223.89;1770368;80;21205;-55
2022/07/06 14:20:06;;;;;;;9.50;3.98;;;;;;;34.18;36.08;100225.14;1781713;79;21177;-56
2022/07/06 14:23:14;;;;;;;5.35;4.00;;;;;;;34.16;36.01;100220.37;1777840;80;21209;-56
2022/07/06 14:26:23;;;;;;;5.28;4.25;;;;;;;34.19;35.97;100217.70;1776099;79;21709;-56
2022/07/06 14:29:32;;;;;;;5.22;4.05;;;;;;;34.22;35.90;100224.13;1741464;80;21236;-56
2022/07/06 14:32:39;;;;;;;4.35;3.33;;;;;;;34.24;35.82;100221.80;1781609;79;21378;-55
2022/07/06 14:35:50;;;;;;;6.53;3.92;;;;;;;34.25;35.79;100218.38;1746264;81;21236;-56